Time;durP1;ratioP1;P1;durP2;ratioP2;P2;SDS_P1;SDS_P2;PMS_P1;PMS_P2;Temp;Humidity;BMP_temperature;BMP_pressure;BME280_temperature;BME280_humidity;BME280_pressure;Samples;Min_cycle;Max_cycle;Signal;HPM_P1;HPM_P2
2022/07/19 00:00:36;;;;;;;;;;;;;;;;;;4898869;29;20035;-58
2022/07/19 00:03:02;;;;;;;;;;;;;;;;;;4890768;29;20013;-58
2022/07/19 00:05:27;;;;;;;;;;;;;;;;;;4893684;29;20163;-60
2022/07/19 00:07:56;;;;;;;;;;;;;;;;;;4897041;29;20046;-57
2022/07/19 00:10:23;;;;;;;;;;;;;;;;;;4895819;29;20486;-58
2022/07/19 00:12:51;;;;;;;;;;;;;;;;;;4895324;29;20005;-59
2022/07/19 00:15:16;;;;;;;;;;;;;;;;;;4897413;29;19929;-58
2022/07/19 00:17:42;;;;;;;;;;;;;;;;;;4896482;29;19965;-59
2022/07/19 00:20:07;;;;;;;;;;;;;;;;;;4886583;29;20174;-59
2022/07/19 00:22:33;;;;;;;;;;;;;;;;;;4897338;29;19923;-59
2022/07/19 00:25:01;;;;;;;;;;;;;;;;;;4894089;29;20378;-59
2022/07/19 00:27:27;;;;;;;;;;;;;;;;;;4892957;29;19978;-57
2022/07/19 00:29:54;;;;;;;;;;;;;;;;;;4888273;29;19927;-57
2022/07/19 00:32:22;;;;;;;;;;;;;;;;;;4894632;29;20023;-58
2022/07/19 00:34:48;;;;;;;;;;;;;;;;;;4896691;29;21196;-58
2022/07/19 00:37:15;;;;;;;;;;;;;;;;;;4893856;29;19930;-58
2022/07/19 00:39:41;;;;;;;;;;;;;;;;;;4887120;29;21874;-57
2022/07/19 00:42:06;;;;;;;;;;;;;;;;;;4909963;29;20374;-59
2022/07/19 00:44:31;;;;;;;;;;;;;;;;;;4894752;29;19923;-57
2022/07/19 00:46:57;;;;;;;;;;;;;;;;;;4895580;29;19927;-58
2022/07/19 00:49:22;;;;;;;;;;;;;;;;;;4895695;29;19926;-59
2022/07/19 00:51:48;;;;;;;;;;;;;;;;;;4896760;29;20485;-59
2022/07/19 00:54:16;;;;;;;;;;;;;;;;;;4893558;29;19923;-59
2022/07/19 00:56:44;;;;;;;;;;;;;;;;;;4896678;29;20006;-58
2022/07/19 00:59:09;;;;;;;;;;;;;;;;;;4895225;29;19927;-59
2022/07/19 01:01:34;;;;;;;;;;;;;;;;;;4900261;29;19926;-58
2022/07/19 01:03:59;;;;;;;;;;;;;;;;;;4882098;29;19923;-57
2022/07/19 01:06:25;;;;;;;;;;;;;;;;;;4900289;29;19919;-58
2022/07/19 01:08:52;;;;;;;;;;;;;;;;;;4899482;29;20560;-58
2022/07/19 01:11:21;;;;;;;;;;;;;;;;;;4898116;29;19927;-58
2022/07/19 01:13:49;;;;;;;;;;;;;;;;;;4900615;29;19989;-59
2022/07/19 01:16:17;;;;;;;;;;;;;;;;;;4897031;29;20414;-58
2022/07/19 01:18:45;;;;;;;;;;;;;;;;;;4898558;29;19923;-59
2022/07/19 01:21:10;;;;;;;;;;;;;;;;;;4884091;29;20843;-57
2022/07/19 01:23:41;;;;;;;;;;;;;;;;;;4898490;29;19923;-58
2022/07/19 01:26:06;;;;;;;;;;;;;;;;;;4898610;29;19930;-59
2022/07/19 01:28:31;;;;;;;;;;;;;;;;;;4900656;29;19919;-58
2022/07/19 01:30:57;;;;;;;;;;;;;;;;;;4899098;29;20044;-58
2022/07/19 01:33:22;;;;;;;;;;;;;;;;;;4885573;29;19961;-58
2022/07/19 01:35:53;;;;;;;;;;;;;;;;;;4902292;29;19923;-56
2022/07/19 01:38:18;;;;;;;;;;;;;;;;;;4898402;29;19961;-58
2022/07/19 01:40:45;;;;;;;;;;;;;;;;;;4898535;29;19926;-58
2022/07/19 01:43:11;;;;;;;;;;;;;;;;;;4885851;29;20328;-59
2022/07/19 01:45:36;;;;;;;;;;;;;;;;;;4898259;29;19959;-60
2022/07/19 01:48:03;;;;;;;;;;;;;;;;;;4897283;29;19951;-59
2022/07/19 01:50:28;;;;;;;;;;;;;;;;;;4898245;29;20030;-57
2022/07/19 01:52:56;;;;;;;;;;;;;;;;;;4898010;29;19918;-58
2022/07/19 01:55:22;;;;;;;;;;;;;;;;;;4898318;29;19970;-58
2022/07/19 01:57:52;;;;;;;;;;;;;;;;;;4897782;29;19923;-59
2022/07/19 02:00:18;;;;;;;;;;;;;;;;;;4899320;29;20530;-59
2022/07/19 02:02:46;;;;;;;;;;;;;;;;;;4899565;29;20851;-58
2022/07/19 02:05:13;;;;;;;;;;;;;;;;;;4896077;29;20130;-59
2022/07/19 02:07:39;;;;;;;;;;;;;;;;;;4898930;29;19919;-59
2022/07/19 02:10:07;;;;;;;;;;;;;;;;;;4898120;29;19966;-59
2022/07/19 02:12:32;;;;;;;;;;;;;;;;;;4899599;29;20022;-58
2022/07/19 02:14:57;;;;;;;;;;;;;;;;;;4881831;29;19923;-59
2022/07/19 02:17:23;;;;;;;;;;;;;;;;;;4898041;29;22024;-59
2022/07/19 02:19:48;;;;;;;;;;;;;;;;;;4896433;29;19995;-59
2022/07/19 02:22:15;;;;;;;;;;;;;;;;;;4897733;29;19974;-60
2022/07/19 02:24:44;;;;;;;;;;;;;;;;;;4899407;29;19919;-59
2022/07/19 02:27:09;;;;;;;;;;;;;;;;;;4887722;29;19954;-59
2022/07/19 02:29:37;;;;;;;;;;;;;;;;;;4897061;29;19923;-59
2022/07/19 02:32:02;;;;;;;;;;;;;;;;;;4883566;29;19930;-59
2022/07/19 02:34:28;;;;;;;;;;;;;;;;;;4899089;29;19935;-60
2022/07/19 02:36:53;;;;;;;;;;;;;;;;;;4895986;29;19919;-59
2022/07/19 02:39:21;;;;;;;;;;;;;;;;;;4901531;29;19919;-59
2022/07/19 02:41:46;;;;;;;;;;;;;;;;;;4899530;29;19929;-58
2022/07/19 02:44:16;;;;;;;;;;;;;;;;;;4899593;29;20288;-59
2022/07/19 02:46:43;;;;;;;;;;;;;;;;;;4887706;29;19923;-58
2022/07/19 02:49:13;;;;;;;;;;;;;;;;;;4897393;29;19919;-59
2022/07/19 02:51:39;;;;;;;;;;;;;;;;;;4895464;29;20034;-59
2022/07/19 02:54:07;;;;;;;;;;;;;;;;;;4898311;29;19927;-59
2022/07/19 02:56:32;;;;;;;;;;;;;;;;;;4898498;29;19926;-59
2022/07/19 02:58:57;;;;;;;;;;;;;;;;;;4898029;29;19923;-59
2022/07/19 03:01:23;;;;;;;;;;;;;;;;;;4898012;29;19922;-59
2022/07/19 03:03:49;;;;;;;;;;;;;;;;;;4897039;29;19927;-59
2022/07/19 03:06:16;;;;;;;;;;;;;;;;;;4896250;29;19923;-57
2022/07/19 03:08:41;;;;;;;;;;;;;;;;;;4896296;29;20542;-57
2022/07/19 03:11:10;;;;;;;;;;;;;;;;;;4886246;29;19966;-58
2022/07/19 03:13:36;;;;;;;;;;;;;;;;;;4896373;29;19919;-58
2022/07/19 03:16:03;;;;;;;;;;;;;;;;;;4898859;29;20316;-57
2022/07/19 03:18:31;;;;;;;;;;;;;;;;;;4897517;29;19926;-58
2022/07/19 03:20:58;;;;;;;;;;;;;;;;;;4897092;29;20011;-58
2022/07/19 03:23:23;;;;;;;;;;;;;;;;;;4895346;29;21951;-59
2022/07/19 03:25:51;;;;;;;;;;;;;;;;;;4897057;29;19923;-58
2022/07/19 03:28:16;;;;;;;;;;;;;;;;;;4896842;29;19935;-57
2022/07/19 03:30:42;;;;;;;;;;;;;;;;;;4894955;29;19927;-59
2022/07/19 03:33:07;;;;;;;;;;;;;;;;;;4895853;29;20096;-59
2022/07/19 03:35:32;;;;;;;;;;;;;;;;;;4881093;29;19923;-59
2022/07/19 03:38:02;;;;;;;;;;;;;;;;;;4895278;29;19923;-57
2022/07/19 03:40:30;;;;;;;;;;;;;;;;;;4880499;29;19923;-58
2022/07/19 03:42:55;;;;;;;;;;;;;;;;;;4895467;29;19919;-57
2022/07/19 03:45:21;;;;;;;;;;;;;;;;;;4897124;29;19929;-59
2022/07/19 03:47:49;;;;;;;;;;;;;;;;;;4881603;29;21012;-59
2022/07/19 03:50:17;;;;;;;;;;;;;;;;;;4896748;29;19927;-58
2022/07/19 03:52:42;;;;;;;;;;;;;;;;;;4901325;29;20390;-59
2022/07/19 03:55:10;;;;;;;;;;;;;;;;;;4882625;29;19918;-59
2022/07/19 03:57:35;;;;;;;;;;;;;;;;;;4895169;29;20002;-59
2022/07/19 04:00:00;;;;;;;;;;;;;;;;;;4897262;29;20094;-59
2022/07/19 04:02:26;;;;;;;;;;;;;;;;;;4894220;29;19931;-59
2022/07/19 04:04:51;;;;;;;;;;;;;;;;;;4899253;29;19927;-60
2022/07/19 04:07:18;;;;;;;;;;;;;;;;;;4895953;29;20017;-60
2022/07/19 04:09:49;;;;;;;;;;;;;;;;;;4896116;29;19923;-59
2022/07/19 04:12:14;;;;;;;;;;;;;;;;;;4897788;29;19919;-59
2022/07/19 04:14:39;;;;;;;;;;;;;;;;;;4895061;29;19923;-60
2022/07/19 04:17:05;;;;;;;;;;;;;;;;;;4897924;29;19919;-60
2022/07/19 04:19:35;;;;;;;;;;;;;;;;;;4896556;29;20515;-63
2022/07/19 04:22:02;;;;;;;;;;;;;;;;;;4897447;29;20009;-59
2022/07/19 04:24:28;;;;;;;;;;;;;;;;;;4901622;29;19930;-59
2022/07/19 04:26:53;;;;;;;;;;;;;;;;;;4900354;29;19919;-58
2022/07/19 04:29:19;;;;;;;;;;;;;;;;;;4894127;29;19947;-58
2022/07/19 04:31:44;;;;;;;;;;;;;;;;;;4897286;29;20010;-59
2022/07/19 04:34:09;;;;;;;;;;;;;;;;;;4900749;29;19986;-59
2022/07/19 04:36:34;;;;;;;;;;;;;;;;;;4896828;29;20005;-59
2022/07/19 04:39:00;;;;;;;;;;;;;;;;;;4884809;29;19919;-59
2022/07/19 04:41:25;;;;;;;;;;;;;;;;;;4886080;29;19927;-59
2022/07/19 04:43:53;;;;;;;;;;;;;;;;;;4897627;29;20014;-58
2022/07/19 04:46:18;;;;;;;;;;;;;;;;;;4898811;29;19919;-60
2022/07/19 04:48:43;;;;;;;;;;;;;;;;;;4900120;29;20313;-61
2022/07/19 04:51:14;;;;;;;;;;;;;;;;;;4898793;29;19946;-59
2022/07/19 04:53:39;;;;;;;;;;;;;;;;;;4884515;29;20009;-60
2022/07/19 04:56:07;;;;;;;;;;;;;;;;;;4885402;29;20182;-59
2022/07/19 04:58:32;;;;;;;;;;;;;;;;;;4897097;29;20581;-61
2022/07/19 05:00:57;;;;;;;;;;;;;;;;;;4903562;29;20548;-60
2022/07/19 05:03:23;;;;;;;;;;;;;;;;;;4898634;29;20938;-60
2022/07/19 05:05:48;;;;;;;;;;;;;;;;;;4901966;29;19946;-59
2022/07/19 05:08:14;;;;;;;;;;;;;;;;;;4883784;29;20772;-59
2022/07/19 05:10:39;;;;;;;;;;;;;;;;;;4897842;29;19927;-59
2022/07/19 05:13:07;;;;;;;;;;;;;;;;;;4900382;29;19966;-59
2022/07/19 05:15:32;;;;;;;;;;;;;;;;;;4900034;29;20002;-60
2022/07/19 05:17:57;;;;;;;;;;;;;;;;;;4898078;29;20972;-60
2022/07/19 05:20:22;;;;;;;;;;;;;;;;;;4897290;29;19923;-60
2022/07/19 05:22:49;;;;;;;;;;;;;;;;;;4900284;29;19927;-61
2022/07/19 05:25:17;;;;;;;;;;;;;;;;;;4898739;29;19919;-60
2022/07/19 05:27:44;;;;;;;;;;;;;;;;;;4896436;29;19923;-60
2022/07/19 05:30:13;;;;;;;;;;;;;;;;;;4883299;29;19938;-59
2022/07/19 05:32:41;;;;;;;;;;;;;;;;;;4897030;29;19922;-58
2022/07/19 05:35:11;;;;;;;;;;;;;;;;;;4899334;29;20034;-58
2022/07/19 05:37:36;;;;;;;;;;;;;;;;;;4898995;29;19924;-59
2022/07/19 05:40:06;;;;;;;;;;;;;;;;;;4898016;29;19923;-59
2022/07/19 05:42:32;;;;;;;;;;;;;;;;;;4897587;29;20001;-59
2022/07/19 05:45:01;;;;;;;;;;;;;;;;;;4895316;29;19927;-59
2022/07/19 05:47:29;;;;;;;;;;;;;;;;;;4897197;29;19915;-59
2022/07/19 05:49:59;;;;;;;;;;;;;;;;;;4897736;29;20742;-59
2022/07/19 05:52:25;;;;;;;;;;;;;;;;;;4896682;29;20704;-58
2022/07/19 05:54:53;;;;;;;;;;;;;;;;;;4898263;29;20286;-59
2022/07/19 05:57:18;;;;;;;;;;;;;;;;;;4897579;29;19967;-61
2022/07/19 05:59:48;;;;;;;;;;;;;;;;;;4896459;29;20007;-60
2022/07/19 06:02:14;;;;;;;;;;;;;;;;;;4897417;29;19958;-59
2022/07/19 06:04:42;;;;;;;;;;;;;;;;;;4896055;29;19923;-59
2022/07/19 06:07:08;;;;;;;;;;;;;;;;;;4899162;29;19931;-61
2022/07/19 06:09:34;;;;;;;;;;;;;;;;;;4896363;29;20554;-60
2022/07/19 06:12:02;;;;;;;;;;;;;;;;;;4897886;29;19927;-59
2022/07/19 06:14:29;;;;;;;;;;;;;;;;;;4896941;29;19919;-59
2022/07/19 06:16:55;;;;;;;;;;;;;;;;;;4896723;29;19952;-59
2022/07/19 06:19:20;;;;;;;;;;;;;;;;;;4901820;29;20004;-59
2022/07/19 06:21:48;;;;;;;;;;;;;;;;;;4897025;29;19946;-60
2022/07/19 06:24:13;;;;;;;;;;;;;;;;;;4898601;29;19974;-62
2022/07/19 06:26:40;;;;;;;;;;;;;;;;;;4885242;29;19919;-59
2022/07/19 06:29:06;;;;;;;;;;;;;;;;;;4897362;29;19941;-59
2022/07/19 06:31:32;;;;;;;;;;;;;;;;;;4887471;29;19966;-60
2022/07/19 06:33:59;;;;;;;;;;;;;;;;;;4897285;29;19954;-60
2022/07/19 06:36:25;;;;;;;;;;;;;;;;;;4899427;29;19958;-60
2022/07/19 06:38:51;;;;;;;;;;;;;;;;;;4896999;29;20151;-60
2022/07/19 06:41:19;;;;;;;;;;;;;;;;;;4901861;29;19919;-61
2022/07/19 06:43:44;;;;;;;;;;;;;;;;;;4885262;29;20042;-60
2022/07/19 06:46:09;;;;;;;;;;;;;;;;;;4898261;29;19919;-60
2022/07/19 06:48:37;;;;;;;;;;;;;;;;;;4896216;29;19928;-60
2022/07/19 06:51:05;;;;;;;;;;;;;;;;;;4897402;29;19934;-59
2022/07/19 06:53:30;;;;;;;;;;;;;;;;;;4897097;29;19978;-60
2022/07/19 06:55:58;;;;;;;;;;;;;;;;;;4899366;29;19930;-60
2022/07/19 06:58:25;;;;;;;;;;;;;;;;;;4896647;29;20030;-59
2022/07/19 07:00:53;;;;;;;;;;;;;;;;;;4886966;29;19987;-60
2022/07/19 07:03:18;;;;;;;;;;;;;;;;;;4898463;29;20074;-61
2022/07/19 07:05:43;;;;;;;;;;;;;;;;;;4898363;29;20267;-62
2022/07/19 07:08:09;;;;;;;;;;;;;;;;;;4880074;29;19923;-61
2022/07/19 07:10:37;;;;;;;;;;;;;;;;;;4897771;29;19927;-62
2022/07/19 07:13:05;;;;;;;;;;;;;;;;;;4883128;29;19949;-61
2022/07/19 07:15:32;;;;;;;;;;;;;;;;;;4898965;29;19919;-60
2022/07/19 07:18:01;;;;;;;;;;;;;;;;;;4897284;29;19930;-61
2022/07/19 07:20:27;;;;;;;;;;;;;;;;;;4898389;29;20335;-61
2022/07/19 07:22:54;;;;;;;;;;;;;;;;;;4897507;29;19974;-61
2022/07/19 07:25:22;;;;;;;;;;;;;;;;;;4897318;29;19923;-61
2022/07/19 07:27:48;;;;;;;;;;;;;;;;;;4898108;29;19962;-61
2022/07/19 07:30:13;;;;;;;;;;;;;;;;;;4897010;29;20502;-61
2022/07/19 07:32:39;;;;;;;;;;;;;;;;;;4896387;29;19919;-60
2022/07/19 07:35:05;;;;;;;;;;;;;;;;;;4898044;29;19930;-60
2022/07/19 07:37:30;;;;;;;;;;;;;;;;;;4895253;29;19922;-60
2022/07/19 07:39:56;;;;;;;;;;;;;;;;;;4897327;29;19927;-60
2022/07/19 07:42:22;;;;;;;;;;;;;;;;;;4895991;29;19925;-60
2022/07/19 07:44:47;;;;;;;;;;;;;;;;;;4897394;29;20006;-61
2022/07/19 07:47:15;;;;;;;;;;;;;;;;;;4896938;29;19934;-60
2022/07/19 07:49:41;;;;;;;;;;;;;;;;;;4884506;29;19923;-61
2022/07/19 07:52:09;;;;;;;;;;;;;;;;;;4895255;29;19922;-60
2022/07/19 07:54:34;;;;;;;;;;;;;;;;;;4897014;29;19930;-60
2022/07/19 07:57:02;;;;;;;;;;;;;;;;;;4897281;29;19923;-60
2022/07/19 07:59:30;;;;;;;;;;;;;;;;;;4895764;29;19923;-59
2022/07/19 08:01:58;;;;;;;;;;;;;;;;;;4897119;29;19971;-59
2022/07/19 08:04:28;;;;;;;;;;;;;;;;;;4896997;29;19931;-60
2022/07/19 08:06:54;;;;;;;;;;;;;;;;;;4897193;29;19984;-61
2022/07/19 08:09:19;;;;;;;;;;;;;;;;;;4896502;29;20821;-61
2022/07/19 08:11:45;;;;;;;;;;;;;;;;;;4895560;29;19926;-61
2022/07/19 08:14:10;;;;;;;;;;;;;;;;;;4880534;29;19919;-61
2022/07/19 08:16:35;;;;;;;;;;;;;;;;;;4896573;29;20181;-60
2022/07/19 08:19:01;;;;;;;;;;;;;;;;;;4897381;29;19918;-60
2022/07/19 08:21:26;;;;;;;;;;;;;;;;;;4886221;29;19927;-61
2022/07/19 08:23:53;;;;;;;;;;;;;;;;;;4897580;29;20418;-61
2022/07/19 08:26:19;;;;;;;;;;;;;;;;;;4894516;29;20030;-60
2022/07/19 08:28:46;;;;;;;;;;;;;;;;;;4894934;29;19927;-60
2022/07/19 08:31:12;;;;;;;;;;;;;;;;;;4898547;29;20051;-61
2022/07/19 08:33:37;;;;;;;;;;;;;;;;;;4893832;29;20484;-60
2022/07/19 08:36:02;;;;;;;;;;;;;;;;;;4895870;29;19970;-62
2022/07/19 08:38:27;;;;;;;;;;;;;;;;;;4895280;29;20130;-60
2022/07/19 08:40:53;;;;;;;;;;;;;;;;;;4895635;29;19919;-62
2022/07/19 08:43:20;;;;;;;;;;;;;;;;;;4896579;29;20799;-61
2022/07/19 08:45:48;;;;;;;;;;;;;;;;;;4896238;29;20030;-61
2022/07/19 08:48:14;;;;;;;;;;;;;;;;;;4896747;29;19925;-61
2022/07/19 08:50:39;;;;;;;;;;;;;;;;;;4880013;29;19934;-61
2022/07/19 08:53:05;;;;;;;;;;;;;;;;;;4894963;29;19927;-61
2022/07/19 08:55:31;;;;;;;;;;;;;;;;;;4896254;29;19929;-62
2022/07/19 08:58:02;;;;;;;;;;;;;;;;;;4895869;29;19939;-62
2022/07/19 09:00:29;;;;;;;;;;;;;;;;;;4895271;29;19927;-62
2022/07/19 09:02:56;;;;;;;;;;;;;;;;;;4894661;29;19934;-61
2022/07/19 09:05:22;;;;;;;;;;;;;;;;;;4883353;29;19977;-61
2022/07/19 09:07:47;;;;;;;;;;;;;;;;;;4898984;29;20014;-61
2022/07/19 09:10:13;;;;;;;;;;;;;;;;;;4897264;29;20583;-62
2022/07/19 09:12:38;;;;;;;;;;;;;;;;;;4878368;29;20061;-61
2022/07/19 09:15:03;;;;;;;;;;;;;;;;;;4880751;29;19923;-62
2022/07/19 09:17:29;;;;;;;;;;;;;;;;;;4898048;29;20340;-60
2022/07/19 09:19:57;;;;;;;;;;;;;;;;;;4885437;29;19927;-61
2022/07/19 09:22:26;;;;;;;;;;;;;;;;;;4887898;29;19946;-61
2022/07/19 09:24:53;;;;;;;;;;;;;;;;;;4897236;29;19923;-61
2022/07/19 09:27:22;;;;;;;;;;;;;;;;;;4899602;29;20071;-61
2022/07/19 09:29:50;;;;;;;;;;;;;;;;;;4896760;29;19923;-62
2022/07/19 09:32:18;;;;;;;;;;;;;;;;;;4899825;29;19923;-61
2022/07/19 09:34:43;;;;;;;;;;;;;;;;;;4896615;29;20001;-60
2022/07/19 09:37:14;;;;;;;;;;;;;;;;;;4899451;29;19942;-61
2022/07/19 09:39:41;;;;;;;;;;;;;;;;;;4899318;29;19929;-61
2022/07/19 09:42:06;;;;;;;;;;;;;;;;;;4896658;29;19950;-61
2022/07/19 09:44:34;;;;;;;;;;;;;;;;;;4899369;29;19923;-60
2022/07/19 09:47:01;;;;;;;;;;;;;;;;;;4898611;29;19974;-60
2022/07/19 09:49:27;;;;;;;;;;;;;;;;;;4899319;29;20010;-62
2022/07/19 09:51:55;;;;;;;;;;;;;;;;;;4899672;29;19919;-62
2022/07/19 09:54:23;;;;;;;;;;;;;;;;;;4877901;29;19930;-62
2022/07/19 09:56:49;;;;;;;;;;;;;;;;;;4885629;29;19923;-62
2022/07/19 09:59:15;;;;;;;;;;;;;;;;;;4897500;29;19931;-62
2022/07/19 10:01:40;;;;;;;;;;;;;;;;;;4898360;29;19930;-62
2022/07/19 10:04:06;;;;;;;;;;;;;;;;;;4880535;29;19950;-62
2022/07/19 10:06:31;;;;;;;;;;;;;;;;;;4898572;29;19919;-62
2022/07/19 10:08:57;;;;;;;;;;;;;;;;;;4899065;29;20022;-62
2022/07/19 10:11:22;;;;;;;;;;;;;;;;;;4886797;29;19923;-63
2022/07/19 10:13:47;;;;;;;;;;;;;;;;;;4897537;29;20028;-61
2022/07/19 10:16:13;;;;;;;;;;;;;;;;;;4899978;29;19938;-61
2022/07/19 10:18:41;;;;;;;;;;;;;;;;;;4896018;29;20275;-63
2022/07/19 10:21:08;;;;;;;;;;;;;;;;;;4897497;29;20022;-61
2022/07/19 10:23:37;;;;;;;;;;;;;;;;;;4897518;29;19927;-62
2022/07/19 10:26:02;;;;;;;;;;;;;;;;;;4898950;29;19935;-61
2022/07/19 10:28:28;;;;;;;;;;;;;;;;;;4895831;29;20014;-62
2022/07/19 10:30:53;;;;;;;;;;;;;;;;;;4896875;29;19927;-61
2022/07/19 10:33:19;;;;;;;;;;;;;;;;;;4898706;29;21289;-62
2022/07/19 10:35:45;;;;;;;;;;;;;;;;;;4896849;29;19923;-62
2022/07/19 10:38:11;;;;;;;;;;;;;;;;;;4894774;29;19930;-63
2022/07/19 10:40:38;;;;;;;;;;;;;;;;;;4899085;29;19942;-62
2022/07/19 10:43:04;;;;;;;;;;;;;;;;;;4899803;29;19923;-62
2022/07/19 10:45:29;;;;;;;;;;;;;;;;;;4896528;29;19923;-63
2022/07/19 10:47:55;;;;;;;;;;;;;;;;;;4900698;29;19994;-62
2022/07/19 10:50:24;;;;;;;;;;;;;;;;;;4899912;29;19934;-63
2022/07/19 10:52:49;;;;;;;;;;;;;;;;;;4897500;29;20042;-64
2022/07/19 10:55:15;;;;;;;;;;;;;;;;;;4897032;29;19989;-63
2022/07/19 10:57:46;;;;;;;;;;;;;;;;;;4897444;29;20854;-62
2022/07/19 11:00:11;;;;;;;;;;;;;;;;;;4899254;29;19923;-64
2022/07/19 11:02:36;;;;;;;;;;;;;;;;;;4897275;29;20383;-62
2022/07/19 11:05:04;;;;;;;;;;;;;;;;;;4897333;29;19927;-63
2022/07/19 11:07:30;;;;;;;;;;;;;;;;;;4898443;29;19923;-63
2022/07/19 11:09:56;;;;;;;;;;;;;;;;;;4912927;29;20175;-62
2022/07/19 11:12:22;;;;;;;;;;;;;;;;;;4898529;29;19919;-62
2022/07/19 11:14:47;;;;;;;;;;;;;;;;;;4884848;29;21682;-62
2022/07/19 11:17:15;;;;;;;;;;;;;;;;;;4896074;29;19922;-62
2022/07/19 11:19:43;;;;;;;;;;;;;;;;;;4898188;29;19938;-61
2022/07/19 11:22:08;;;;;;;;;;;;;;;;;;4898074;29;19926;-63
2022/07/19 11:24:37;;;;;;;;;;;;;;;;;;4896740;29;20809;-63
2022/07/19 11:27:02;;;;;;;;;;;;;;;;;;4897495;29;19966;-61
2022/07/19 11:29:28;;;;;;;;;;;;;;;;;;4911270;29;20025;-63
2022/07/19 11:31:53;;;;;;;;;;;;;;;;;;4898397;29;19923;-63
2022/07/19 11:34:19;;;;;;;;;;;;;;;;;;4897213;29;19933;-63
2022/07/19 11:36:44;;;;;;;;;;;;;;;;;;4897006;29;20579;-61
2022/07/19 11:39:12;;;;;;;;;;;;;;;;;;4897645;29;19930;-63
2022/07/19 11:41:38;;;;;;;;;;;;;;;;;;4884258;29;19935;-63
2022/07/19 11:44:03;;;;;;;;;;;;;;;;;;4895548;29;19919;-62
2022/07/19 11:46:29;;;;;;;;;;;;;;;;;;4899027;29;19925;-63
2022/07/19 11:48:54;;;;;;;;;;;;;;;;;;4896906;29;21851;-62
2022/07/19 11:51:20;;;;;;;;;;;;;;;;;;4897150;29;19926;-62
2022/07/19 11:53:45;;;;;;;;;;;;;;;;;;4896673;29;19919;-63
2022/07/19 11:56:10;;;;;;;;;;;;;;;;;;4881252;29;19930;-63
2022/07/19 11:58:35;;;;;;;;;;;;;;;;;;4880863;29;19918;-61
2022/07/19 12:01:03;;;;;;;;;;;;;;;;;;4897105;29;19926;-62
2022/07/19 12:03:30;;;;;;;;;;;;;;;;;;4894419;29;20280;-62
2022/07/19 12:05:59;;;;;;;;;;;;;;;;;;4896314;29;20067;-62
2022/07/19 12:08:24;;;;;;;;;;;;;;;;;;4898934;29;19925;-63
2022/07/19 12:10:50;;;;;;;;;;;;;;;;;;4897492;29;19967;-62
2022/07/19 12:13:15;;;;;;;;;;;;;;;;;;4896559;29;19923;-62
2022/07/19 12:15:41;;;;;;;;;;;;;;;;;;4893066;29;19923;-63
2022/07/19 12:18:07;;;;;;;;;;;;;;;;;;4899641;29;19967;-62
2022/07/19 12:20:34;;;;;;;;;;;;;;;;;;4884384;29;19962;-62
2022/07/19 12:23:00;;;;;;;;;;;;;;;;;;4896450;29;20041;-63
2022/07/19 12:25:28;;;;;;;;;;;;;;;;;;4884953;29;20023;-61
2022/07/19 12:27:56;;;;;;;;;;;;;;;;;;4893897;29;19930;-62
2022/07/19 12:30:24;;;;;;;;;;;;;;;;;;4897021;29;19918;-63
2022/07/19 12:32:49;;;;;;;;;;;;;;;;;;4895384;29;19918;-63
2022/07/19 12:35:15;;;;;;;;;;;;;;;;;;4900609;29;19931;-62
2022/07/19 12:37:40;;;;;;;;;;;;;;;;;;4897372;29;20002;-63
2022/07/19 12:40:06;;;;;;;;;;;;;;;;;;4893357;29;20018;-63
2022/07/19 12:42:31;;;;;;;;;;;;;;;;;;4896915;29;20896;-62
2022/07/19 12:44:57;;;;;;;;;;;;;;;;;;4895077;29;19923;-62
2022/07/19 12:47:22;;;;;;;;;;;;;;;;;;4896355;29;19942;-63
2022/07/19 12:49:48;;;;;;;;;;;;;;;;;;4883492;29;19951;-63
2022/07/19 12:52:14;;;;;;;;;;;;;;;;;;4880385;29;19919;-62
2022/07/19 12:54:39;;;;;;;;;;;;;;;;;;4886355;29;19923;-63
2022/07/19 12:57:04;;;;;;;;;;;;;;;;;;4899469;29;19923;-62
2022/07/19 12:59:41;;;;;;;;;;;;;;;;;;4899732;29;19933;-63
2022/07/19 13:02:07;;;;;;;;;;;;;;;;;;4901496;29;19966;-61
2022/07/19 13:04:35;;;;;;;;;;;;;;;;;;4898495;29;20009;-62
2022/07/19 13:07:03;;;;;;;;;;;;;;;;;;4901726;29;19923;-61
2022/07/19 13:09:28;;;;;;;;;;;;;;;;;;4884543;29;20082;-62
2022/07/19 13:11:54;;;;;;;;;;;;;;;;;;4894985;29;20018;-59
2022/07/19 13:14:19;;;;;;;;;;;;;;;;;;4900501;29;20769;-62
2022/07/19 13:16:45;;;;;;;;;;;;;;;;;;4895739;29;20601;-63
2022/07/19 13:19:11;;;;;;;;;;;;;;;;;;4901419;29;19954;-63
2022/07/19 13:21:36;;;;;;;;;;;;;;;;;;4912795;29;19927;-62
2022/07/19 13:24:02;;;;;;;;;;;;;;;;;;4900616;29;19934;-63
2022/07/19 13:26:28;;;;;;;;;;;;;;;;;;4886481;29;19923;-62
2022/07/19 13:28:56;;;;;;;;;;;;;;;;;;4899787;29;20370;-63
2022/07/19 13:31:21;;;;;;;;;;;;;;;;;;4885005;29;19946;-62
2022/07/19 13:33:46;;;;;;;;;;;;;;;;;;4897765;29;19958;-61
2022/07/19 13:36:14;;;;;;;;;;;;;;;;;;4900005;29;20021;-63
2022/07/19 13:38:41;;;;;;;;;;;;;;;;;;4882625;29;20294;-63
2022/07/19 13:41:07;;;;;;;;;;;;;;;;;;4900162;29;19923;-64
2022/07/19 13:43:34;;;;;;;;;;;;;;;;;;4899111;29;19954;-62
2022/07/19 13:46:00;;;;;;;;;;;;;;;;;;4898550;29;20069;-62
2022/07/19 13:48:26;;;;;;;;;;;;;;;;;;4895633;29;19942;-62
2022/07/19 13:50:51;;;;;;;;;;;;;;;;;;4898916;29;21249;-62
2022/07/19 13:53:16;;;;;;;;;;;;;;;;;;4899240;29;19930;-64
2022/07/19 13:55:45;;;;;;;;;;;;;;;;;;4897375;29;19919;-60
2022/07/19 13:58:12;;;;;;;;;;;;;;;;;;4887182;29;19950;-63
2022/07/19 14:00:45;;;;;;;;;;;;;;;;;;4897804;29;21181;-64
2022/07/19 14:03:11;;;;;;;;;;;;;;;;;;4896723;29;19931;-63
2022/07/19 14:05:38;;;;;;;;;;;;;;;;;;4897731;29;19923;-65
2022/07/19 14:08:05;;;;;;;;;;;;;;;;;;4899027;29;19934;-64
2022/07/19 14:10:30;;;;;;;;;;;;;;;;;;4885901;29;20362;-63
2022/07/19 14:12:56;;;;;;;;;;;;;;;;;;4895578;29;19926;-65
2022/07/19 14:15:21;;;;;;;;;;;;;;;;;;4899512;29;19930;-63
2022/07/19 14:17:47;;;;;;;;;;;;;;;;;;4883665;29;20820;-63
2022/07/19 14:20:13;;;;;;;;;;;;;;;;;;4901619;29;19930;-63
2022/07/19 14:22:41;;;;;;;;;;;;;;;;;;4898050;29;19923;-62
2022/07/19 14:25:06;;;;;;;;;;;;;;;;;;4899628;29;19934;-63
2022/07/19 14:27:34;;;;;;;;;;;;;;;;;;4897612;29;19934;-63
2022/07/19 14:30:02;;;;;;;;;;;;;;;;;;4881497;29;19923;-62
2022/07/19 14:32:30;;;;;;;;;;;;;;;;;;4897434;29;20009;-64
2022/07/19 14:34:55;;;;;;;;;;;;;;;;;;4898683;29;19923;-64
2022/07/19 14:37:20;;;;;;;;;;;;;;;;;;4897549;29;20686;-63
2022/07/19 14:39:46;;;;;;;;;;;;;;;;;;4898295;29;19929;-64
2022/07/19 14:42:11;;;;;;;;;;;;;;;;;;4897738;29;20414;-63
2022/07/19 14:44:36;;;;;;;;;;;;;;;;;;4896936;29;19923;-66
2022/07/19 14:47:03;;;;;;;;;;;;;;;;;;4899067;29;19930;-64
2022/07/19 14:49:28;;;;;;;;;;;;;;;;;;4902052;29;19927;-64
2022/07/19 14:51:54;;;;;;;;;;;;;;;;;;4897407;29;20509;-63
2022/07/19 14:54:22;;;;;;;;;;;;;;;;;;4897991;29;19923;-61
2022/07/19 14:56:50;;;;;;;;;;;;;;;;;;4894291;29;19918;-62
2022/07/19 14:59:16;;;;;;;;;;;;;;;;;;4899102;29;19919;-62
2022/07/19 15:01:42;;;;;;;;;;;;;;;;;;4899304;29;20417;-63
2022/07/19 15:04:08;;;;;;;;;;;;;;;;;;4898854;29;19930;-64
2022/07/19 15:06:36;;;;;;;;;;;;;;;;;;4895998;29;19923;-63
2022/07/19 15:09:01;;;;;;;;;;;;;;;;;;4899540;29;20006;-62
2022/07/19 15:11:32;;;;;;;;;;;;;;;;;;4897893;29;20009;-64
2022/07/19 15:13:57;;;;;;;;;;;;;;;;;;4898156;29;20050;-63
2022/07/19 15:16:25;;;;;;;;;;;;;;;;;;4900154;29;19923;-62
2022/07/19 15:18:51;;;;;;;;;;;;;;;;;;4895482;29;19930;-62
2022/07/19 15:21:17;;;;;;;;;;;;;;;;;;4895713;29;19927;-63
2022/07/19 15:23:42;;;;;;;;;;;;;;;;;;4900608;29;19919;-60
2022/07/19 15:26:07;;;;;;;;;;;;;;;;;;4897589;29;19962;-60
2022/07/19 15:28:33;;;;;;;;;;;;;;;;;;4896462;29;19923;-62
2022/07/19 15:31:01;;;;;;;;;;;;;;;;;;4896420;29;19923;-62
2022/07/19 15:33:27;;;;;;;;;;;;;;;;;;4896101;29;19923;-61
2022/07/19 15:35:52;;;;;;;;;;;;;;;;;;4898399;29;19919;-61
2022/07/19 15:38:17;;;;;;;;;;;;;;;;;;4896563;29;20053;-61
2022/07/19 15:40:42;;;;;;;;;;;;;;;;;;4898662;29;20397;-60
2022/07/19 15:43:10;;;;;;;;;;;;;;;;;;4880495;29;20650;-62
2022/07/19 15:45:36;;;;;;;;;;;;;;;;;;4896539;29;19934;-63
2022/07/19 15:48:01;;;;;;;;;;;;;;;;;;4900016;29;19919;-62
2022/07/19 15:50:27;;;;;;;;;;;;;;;;;;4898099;29;19927;-63
2022/07/19 15:52:54;;;;;;;;;;;;;;;;;;4895755;29;19923;-63
2022/07/19 15:55:19;;;;;;;;;;;;;;;;;;4895141;29;19927;-61
2022/07/19 15:57:44;;;;;;;;;;;;;;;;;;4895236;29;20627;-63
2022/07/19 16:00:10;;;;;;;;;;;;;;;;;;4896837;29;19981;-59
2022/07/19 16:02:36;;;;;;;;;;;;;;;;;;4897238;29;19953;-60
2022/07/19 16:05:01;;;;;;;;;;;;;;;;;;4881279;29;19934;-63
2022/07/19 16:07:27;;;;;;;;;;;;;;;;;;4898290;29;20053;-63
2022/07/19 16:09:52;;;;;;;;;;;;;;;;;;4896395;29;19919;-63
2022/07/19 16:12:18;;;;;;;;;;;;;;;;;;4895745;29;19933;-60
2022/07/19 16:14:48;;;;;;;;;;;;;;;;;;4883543;29;20652;-63
2022/07/19 16:17:14;;;;;;;;;;;;;;;;;;4900176;29;19923;-61
2022/07/19 16:19:39;;;;;;;;;;;;;;;;;;4895201;29;22050;-63
2022/07/19 16:22:05;;;;;;;;;;;;;;;;;;4900418;29;19931;-62
2022/07/19 16:24:33;;;;;;;;;;;;;;;;;;4894592;29;19933;-62
2022/07/19 16:26:58;;;;;;;;;;;;;;;;;;4895538;29;20438;-62
2022/07/19 16:29:26;;;;;;;;;;;;;;;;;;4896701;29;19951;-62
2022/07/19 16:31:54;;;;;;;;;;;;;;;;;;4897165;29;20042;-61
2022/07/19 16:34:24;;;;;;;;;;;;;;;;;;4903342;29;19954;-62
2022/07/19 16:36:49;;;;;;;;;;;;;;;;;;4903244;29;19985;-62
2022/07/19 16:39:15;;;;;;;;;;;;;;;;;;4899283;29;20356;-63